Terminal Aerodrome Forecast
Issued by NWS

Home | Current Version | Previous Version | Text Only | Print | Product List | Glossary On
Versions: 1 2 3 4 5 6 7 8 9 10 11 12 13 14 15 16 17 18
715
FTUS41 KGYX 281120
TAFAUG
TAF
KAUG 281120Z 2812/2912 00000KT P6SM SCT150 BKN250
     FM281800 20004KT P6SM BKN100 PROB30 2900/2902 6SM -TSRA
      BKN050CB
     FM290400 08003KT 4SM BR BKN100=

USA.gov is the U.S. government's official web portal to all federal, state and local government web resources and services.